sensor_id;sensor_type;location;lat;lon;timestamp;pressure;altitude;pressure_sealevel;temperature;humidity
60583;BME280;46415;47.536;19.066;2022-11-15T00:01:49;100982.34;;;4.59;100.00
60583;BME280;46415;47.536;19.066;2022-11-15T00:05:10;100978.88;;;4.60;100.00
60583;BME280;46415;47.536;19.066;2022-11-15T00:08:32;100976.28;;;4.63;100.00
60583;BME280;46415;47.536;19.066;2022-11-15T00:11:53;100972.87;;;4.61;100.00
60583;BME280;46415;47.536;19.066;2022-11-15T00:15:14;100986.56;;;4.61;100.00
60583;BME280;46415;47.536;19.066;2022-11-15T00:18:35;100978.81;;;4.67;100.00
60583;BME280;46415;47.536;19.066;2022-11-15T00:21:56;100977.94;;;4.70;100.00
60583;BME280;46415;47.536;19.066;2022-11-15T00:25:17;100983.19;;;4.58;100.00
60583;BME280;46415;47.536;19.066;2022-11-15T00:28:39;100979.84;;;4.49;100.00
60583;BME280;46415;47.536;19.066;2022-11-15T00:32:00;100972.06;;;4.54;100.00
60583;BME280;46415;47.536;19.066;2022-11-15T00:35:21;100977.19;;;4.57;100.00
60583;BME280;46415;47.536;19.066;2022-11-15T00:38:43;100972.91;;;4.58;100.00
60583;BME280;46415;47.536;19.066;2022-11-15T00:42:04;100967.72;;;4.62;100.00
60583;BME280;46415;47.536;19.066;2022-11-15T00:45:25;100966.13;;;4.50;100.00
60583;BME280;46415;47.536;19.066;2022-11-15T00:48:47;100963.59;;;4.44;100.00
60583;BME280;46415;47.536;19.066;2022-11-15T00:52:08;100961.03;;;4.43;100.00
60583;BME280;46415;47.536;19.066;2022-11-15T00:55:29;100950.81;;;4.40;100.00
60583;BME280;46415;47.536;19.066;2022-11-15T00:58:50;100937.97;;;4.37;100.00
60583;BME280;46415;47.536;19.066;2022-11-15T01:02:11;100943.16;;;4.32;100.00
60583;BME280;46415;47.536;19.066;2022-11-15T01:05:32;100944.06;;;4.25;100.00
60583;BME280;46415;47.536;19.066;2022-11-15T01:08:53;100950.97;;;4.19;100.00
60583;BME280;46415;47.536;19.066;2022-11-15T01:12:14;100946.66;;;4.24;100.00
60583;BME280;46415;47.536;19.066;2022-11-15T01:15:39;100950.06;;;4.26;100.00
60583;BME280;46415;47.536;19.066;2022-11-15T01:19:00;100946.69;;;4.18;100.00
60583;BME280;46415;47.536;19.066;2022-11-15T01:22:21;100937.28;;;4.18;100.00
60583;BME280;46415;47.536;19.066;2022-11-15T01:25:42;100933.84;;;4.22;100.00
60583;BME280;46415;47.536;19.066;2022-11-15T01:29:03;100925.34;;;4.16;100.00
60583;BME280;46415;47.536;19.066;2022-11-15T01:32:24;100924.53;;;4.10;100.00
60583;BME280;46415;47.536;19.066;2022-11-15T01:35:45;100931.44;;;4.04;100.00
60583;BME280;46415;47.536;19.066;2022-11-15T01:39:07;100927.09;;;4.09;100.00
60583;BME280;46415;47.536;19.066;2022-11-15T01:42:28;100922.78;;;4.14;100.00
60583;BME280;46415;47.536;19.066;2022-11-15T01:45:53;100922.78;;;4.16;100.00
60583;BME280;46415;47.536;19.066;2022-11-15T01:49:19;100918.47;;;4.16;100.00
60583;BME280;46415;47.536;19.066;2022-11-15T01:52:41;100924.47;;;4.17;100.00
60583;BME280;46415;47.536;19.066;2022-11-15T01:56:06;100915.91;;;4.16;100.00
60583;BME280;46415;47.536;19.066;2022-11-15T01:59:29;100923.59;;;4.19;100.00
60583;BME280;46415;47.536;19.066;2022-11-15T02:02:50;100913.31;;;4.21;100.00
60583;BME280;46415;47.536;19.066;2022-11-15T02:06:11;100908.16;;;4.18;100.00
60583;BME280;46415;47.536;19.066;2022-11-15T02:09:32;100911.59;;;4.20;100.00
60583;BME280;46415;47.536;19.066;2022-11-15T02:12:54;100901.31;;;4.21;100.00
60583;BME280;46415;47.536;19.066;2022-11-15T02:35:24;100891.66;;;4.43;100.00
60583;BME280;46415;47.536;19.066;2022-11-15T02:38:56;100890.87;;;4.36;100.00
60583;BME280;46415;47.536;19.066;2022-11-15T02:42:33;100883.97;;;4.41;100.00
60583;BME280;46415;47.536;19.066;2022-11-15T02:46:23;100878.75;;;4.50;100.00
60583;BME280;46415;47.536;19.066;2022-11-15T02:50:16;100882.16;;;4.51;100.00
60583;BME280;46415;47.536;19.066;2022-11-15T02:53:38;100875.25;;;4.55;100.00
60583;BME280;46415;47.536;19.066;2022-11-15T02:57:04;100877.03;;;4.49;100.00
60583;BME280;46415;47.536;19.066;2022-11-15T03:00:35;100878.75;;;4.50;100.00
60583;BME280;46415;47.536;19.066;2022-11-15T03:04:13;100876.03;;;4.64;100.00
60583;BME280;46415;47.536;19.066;2022-11-15T03:08:02;100871.69;;;4.68;100.00
60583;BME280;46415;47.536;19.066;2022-11-15T03:11:27;100872.53;;;4.68;100.00
60583;BME280;46415;47.536;19.066;2022-11-15T03:15:01;100869.81;;;4.82;100.00
60583;BME280;46415;47.536;19.066;2022-11-15T03:21:53;100872.41;;;4.79;100.00
60583;BME280;46415;47.536;19.066;2022-11-15T03:25:24;100861.31;;;4.75;100.00
60583;BME280;46415;47.536;19.066;2022-11-15T03:28:58;100857.91;;;4.75;100.00
60583;BME280;46415;47.536;19.066;2022-11-15T03:32:25;100849.25;;;4.80;100.00
60583;BME280;46415;47.536;19.066;2022-11-15T03:35:48;100853.50;;;4.83;100.00
60583;BME280;46415;47.536;19.066;2022-11-15T03:39:10;100850.03;;;4.85;100.00
60583;BME280;46415;47.536;19.066;2022-11-15T03:42:49;100851.75;;;4.85;100.00
60583;BME280;46415;47.536;19.066;2022-11-15T03:46:21;100855.97;;;4.89;100.00
60583;BME280;46415;47.536;19.066;2022-11-15T03:49:46;100845.69;;;4.89;100.00
60583;BME280;46415;47.536;19.066;2022-11-15T03:53:12;100847.41;;;4.90;100.00
60583;BME280;46415;47.536;19.066;2022-11-15T03:56:33;100843.94;;;4.94;100.00
60583;BME280;46415;47.536;19.066;2022-11-15T03:59:54;100836.16;;;5.00;100.00
60583;BME280;46415;47.536;19.066;2022-11-15T04:03:15;100832.56;;;5.12;100.00
60583;BME280;46415;47.536;19.066;2022-11-15T04:06:36;100828.19;;;5.18;100.00
60583;BME280;46415;47.536;19.066;2022-11-15T04:10:00;100818.00;;;5.08;100.00
60583;BME280;46415;47.536;19.066;2022-11-15T04:13:23;100816.31;;;5.07;100.00
60583;BME280;46415;47.536;19.066;2022-11-15T04:16:44;100803.41;;;5.11;100.00
60583;BME280;46415;47.536;19.066;2022-11-15T04:20:08;100803.34;;;5.13;100.00
60583;BME280;46415;47.536;19.066;2022-11-15T04:23:48;100800.84;;;5.11;100.00
60583;BME280;46415;47.536;19.066;2022-11-15T04:27:12;100796.66;;;5.03;100.00
60583;BME280;46415;47.536;19.066;2022-11-15T04:30:34;100807.03;;;4.97;100.00
60583;BME280;46415;47.536;19.066;2022-11-15T04:33:55;100808.66;;;5.02;100.00
60583;BME280;46415;47.536;19.066;2022-11-15T04:37:16;100812.00;;;5.09;100.00
60583;BME280;46415;47.536;19.066;2022-11-15T04:40:38;100803.50;;;5.05;100.00
60583;BME280;46415;47.536;19.066;2022-11-15T04:43:59;100801.00;;;4.99;100.00
60583;BME280;46415;47.536;19.066;2022-11-15T04:47:20;100801.12;;;4.90;100.00
60583;BME280;46415;47.536;19.066;2022-11-15T04:50:48;100804.28;;;5.07;100.00
60583;BME280;46415;47.536;19.066;2022-11-15T04:54:08;100797.59;;;4.97;100.00
60583;BME280;46415;47.536;19.066;2022-11-15T04:57:30;100789.03;;;4.95;100.00
60583;BME280;46415;47.536;19.066;2022-11-15T05:00:53;100784.75;;;4.96;100.00
60583;BME280;46415;47.536;19.066;2022-11-15T05:04:14;100778.66;;;5.01;100.00
60583;BME280;46415;47.536;19.066;2022-11-15T05:07:41;100775.19;;;5.05;100.00
60583;BME280;46415;47.536;19.066;2022-11-15T05:11:02;100778.63;;;5.04;100.00
60583;BME280;46415;47.536;19.066;2022-11-15T05:14:23;100780.44;;;4.96;100.00
60583;BME280;46415;47.536;19.066;2022-11-15T05:17:44;100782.13;;;5.00;100.00
60583;BME280;46415;47.536;19.066;2022-11-15T05:21:07;100793.13;;;5.10;100.00
60583;BME280;46415;47.536;19.066;2022-11-15T05:24:29;100784.47;;;5.14;100.00
60583;BME280;46415;47.536;19.066;2022-11-15T05:27:50;100789.53;;;5.21;100.00
60583;BME280;46415;47.536;19.066;2022-11-15T05:31:14;100788.66;;;5.22;100.00
60583;BME280;46415;47.536;19.066;2022-11-15T05:34:35;100792.78;;;5.32;100.00
60583;BME280;46415;47.536;19.066;2022-11-15T05:37:56;100795.31;;;5.36;100.00
60583;BME280;46415;47.536;19.066;2022-11-15T05:41:21;100791.03;;;5.34;100.00
60583;BME280;46415;47.536;19.066;2022-11-15T05:44:47;100778.06;;;5.41;100.00
60583;BME280;46415;47.536;19.066;2022-11-15T05:48:09;100780.47;;;5.50;100.00
60583;BME280;46415;47.536;19.066;2022-11-15T05:51:31;100786.50;;;5.49;100.00
60583;BME280;46415;47.536;19.066;2022-11-15T05:54:52;100793.25;;;5.56;100.00
60583;BME280;46415;47.536;19.066;2022-11-15T05:58:14;100784.72;;;5.54;100.00
60583;BME280;46415;47.536;19.066;2022-11-15T06:01:34;100781.97;;;5.63;100.00
60583;BME280;46415;47.536;19.066;2022-11-15T06:04:56;100779.47;;;5.60;100.00
60583;BME280;46415;47.536;19.066;2022-11-15T06:08:17;100775.94;;;5.65;100.00
60583;BME280;46415;47.536;19.066;2022-11-15T06:11:38;100772.53;;;5.65;100.00
60583;BME280;46415;47.536;19.066;2022-11-15T06:14:59;100770.81;;;5.64;100.00
60583;BME280;46415;47.536;19.066;2022-11-15T06:18:19;100772.47;;;5.66;100.00
60583;BME280;46415;47.536;19.066;2022-11-15T06:21:40;100775.87;;;5.68;100.00
60583;BME280;46415;47.536;19.066;2022-11-15T06:25:02;100770.72;;;5.68;100.00
60583;BME280;46415;47.536;19.066;2022-11-15T06:28:32;100770.59;;;5.78;100.00
60583;BME280;46415;47.536;19.066;2022-11-15T06:31:53;100778.22;;;5.82;100.00
60583;BME280;46415;47.536;19.066;2022-11-15T06:35:14;100779.19;;;5.77;100.00
60583;BME280;46415;47.536;19.066;2022-11-15T06:38:36;100787.66;;;5.83;100.00
60583;BME280;46415;47.536;19.066;2022-11-15T06:41:57;100787.66;;;5.83;100.00
60583;BME280;46415;47.536;19.066;2022-11-15T06:45:18;100789.31;;;5.87;100.00
60583;BME280;46415;47.536;19.066;2022-11-15T06:48:38;100778.91;;;5.93;100.00
60583;BME280;46415;47.536;19.066;2022-11-15T06:51:59;100780.81;;;5.82;100.00
60583;BME280;46415;47.536;19.066;2022-11-15T06:55:20;100786.00;;;5.79;100.00
60583;BME280;46415;47.536;19.066;2022-11-15T06:58:41;100786.84;;;5.80;100.00
60583;BME280;46415;47.536;19.066;2022-11-15T07:02:03;100785.06;;;5.83;100.00
60583;BME280;46415;47.536;19.066;2022-11-15T07:05:24;100783.38;;;5.81;100.00
60583;BME280;46415;47.536;19.066;2022-11-15T07:08:45;100775.69;;;5.79;100.00
60583;BME280;46415;47.536;19.066;2022-11-15T07:12:06;100773.94;;;5.83;100.00
60583;BME280;46415;47.536;19.066;2022-11-15T07:15:27;100764.41;;;5.89;100.00
60583;BME280;46415;47.536;19.066;2022-11-15T07:18:48;100766.06;;;5.90;100.00
60583;BME280;46415;47.536;19.066;2022-11-15T07:22:09;100776.34;;;5.93;100.00
60583;BME280;46415;47.536;19.066;2022-11-15T07:25:31;100771.97;;;5.97;100.00
60583;BME280;46415;47.536;19.066;2022-11-15T07:28:52;100761.44;;;6.09;100.00
60583;BME280;46415;47.536;19.066;2022-11-15T07:32:13;100767.28;;;6.19;100.00
60583;BME280;46415;47.536;19.066;2022-11-15T07:35:34;100765.31;;;6.31;100.00
60583;BME280;46415;47.536;19.066;2022-11-15T07:38:55;100765.13;;;6.39;100.00
60583;BME280;46415;47.536;19.066;2022-11-15T07:42:16;100766.66;;;6.49;100.00
60583;BME280;46415;47.536;19.066;2022-11-15T07:45:56;100766.78;;;6.43;100.00
60583;BME280;46415;47.536;19.066;2022-11-15T07:49:19;100772.75;;;6.45;100.00
60583;BME280;46415;47.536;19.066;2022-11-15T07:52:40;100770.22;;;6.43;100.00
60583;BME280;46415;47.536;19.066;2022-11-15T07:56:01;100757.75;;;6.62;100.00
60583;BME280;46415;47.536;19.066;2022-11-15T07:59:23;100755.13;;;6.65;100.00
60583;BME280;46415;47.536;19.066;2022-11-15T08:02:45;100762.00;;;6.66;100.00
60583;BME280;46415;47.536;19.066;2022-11-15T08:06:06;100754.19;;;6.69;100.00
60583;BME280;46415;47.536;19.066;2022-11-15T08:09:28;100761.88;;;6.72;100.00
60583;BME280;46415;47.536;19.066;2022-11-15T08:16:23;100748.34;;;7.00;100.00
60583;BME280;46415;47.536;19.066;2022-11-15T08:19:44;100742.22;;;7.04;100.00
60583;BME280;46415;47.536;19.066;2022-11-15T08:23:09;100734.03;;;7.22;100.00
60583;BME280;46415;47.536;19.066;2022-11-15T08:26:30;100736.09;;;7.43;100.00
60583;BME280;46415;47.536;19.066;2022-11-15T08:29:51;100745.72;;;7.38;100.00
60583;BME280;46415;47.536;19.066;2022-11-15T08:33:19;100729.41;;;7.34;100.00
60583;BME280;46415;47.536;19.066;2022-11-15T08:36:39;100720.12;;;7.27;100.00
60583;BME280;46415;47.536;19.066;2022-11-15T08:40:06;100708.00;;;6.95;100.00
60583;BME280;46415;47.536;19.066;2022-11-15T08:43:28;100711.66;;;6.85;100.00
60583;BME280;46415;47.536;19.066;2022-11-15T08:46:50;100707.50;;;6.80;100.00
60583;BME280;46415;47.536;19.066;2022-11-15T08:50:11;100711.66;;;6.85;100.00
60583;BME280;46415;47.536;19.066;2022-11-15T08:53:33;100714.38;;;6.81;100.00
60583;BME280;46415;47.536;19.066;2022-11-15T08:56:54;100697.00;;;6.87;100.00
60583;BME280;46415;47.536;19.066;2022-11-15T09:00:16;100700.31;;;6.94;100.00
60583;BME280;46415;47.536;19.066;2022-11-15T09:03:39;100701.22;;;6.91;100.00
60583;BME280;46415;47.536;19.066;2022-11-15T09:07:01;100697.84;;;6.89;100.00
60583;BME280;46415;47.536;19.066;2022-11-15T09:10:23;100697.91;;;6.86;100.00
60583;BME280;46415;47.536;19.066;2022-11-15T09:13:45;100696.12;;;6.88;100.00
60583;BME280;46415;47.536;19.066;2022-11-15T09:17:09;100694.66;;;6.78;100.00
60583;BME280;46415;47.536;19.066;2022-11-15T09:20:30;100677.25;;;6.86;100.00
60583;BME280;46415;47.536;19.066;2022-11-15T09:23:52;100680.28;;;7.04;100.00
60583;BME280;46415;47.536;19.066;2022-11-15T09:27:13;100669.81;;;7.10;100.00
60583;BME280;46415;47.536;19.066;2022-11-15T09:30:35;100672.06;;;7.23;100.00
60583;BME280;46415;47.536;19.066;2022-11-15T09:33:56;100670.06;;;7.33;100.00
60583;BME280;46415;47.536;19.066;2022-11-15T09:37:17;100659.03;;;7.60;100.00
60583;BME280;46415;47.536;19.066;2022-11-15T09:40:38;100657.16;;;7.65;100.00
60583;BME280;46415;47.536;19.066;2022-11-15T09:48:03;100658.03;;;7.66;100.00
60583;BME280;46415;47.536;19.066;2022-11-15T09:51:36;100659.34;;;7.50;100.00
60583;BME280;46415;47.536;19.066;2022-11-15T09:54:50;100661.03;;;7.51;100.00
60583;BME280;46415;47.536;19.066;2022-11-15T09:58:16;100644.06;;;7.41;100.00
60583;BME280;46415;47.536;19.066;2022-11-15T10:04:50;100654.19;;;7.48;100.00
60583;BME280;46415;47.536;19.066;2022-11-15T10:11:24;100639.97;;;7.64;100.00
60583;BME280;46415;47.536;19.066;2022-11-15T10:14:45;100643.34;;;7.68;100.00
60583;BME280;46415;47.536;19.066;2022-11-15T10:28:27;100612.00;;;7.49;100.00
60583;BME280;46415;47.536;19.066;2022-11-15T10:31:30;100610.09;;;7.56;100.00
60583;BME280;46415;47.536;19.066;2022-11-15T10:34:35;100610.03;;;7.57;100.00
60583;BME280;46415;47.536;19.066;2022-11-15T10:37:38;100601.34;;;7.61;100.00
60583;BME280;46415;47.536;19.066;2022-11-15T10:40:44;100608.97;;;7.64;100.00
60583;BME280;46415;47.536;19.066;2022-11-15T10:44:07;100600.31;;;7.67;100.00
60583;BME280;46415;47.536;19.066;2022-11-15T10:47:40;100594.97;;;7.73;100.00
60583;BME280;46415;47.536;19.066;2022-11-15T10:50:46;100588.09;;;7.72;100.00
60583;BME280;46415;47.536;19.066;2022-11-15T10:53:51;100579.63;;;7.68;100.00
60583;BME280;46415;47.536;19.066;2022-11-15T10:56:57;100566.59;;;7.71;100.00
60583;BME280;46415;47.536;19.066;2022-11-15T11:00:05;100561.97;;;7.83;100.00
60583;BME280;46415;47.536;19.066;2022-11-15T11:03:28;100572.16;;;7.87;100.00
60583;BME280;46415;47.536;19.066;2022-11-15T11:06:52;100564.66;;;7.79;100.00
60583;BME280;46415;47.536;19.066;2022-11-15T11:13:25;100552.84;;;7.99;100.00
60583;BME280;46415;47.536;19.066;2022-11-15T11:16:40;100552.53;;;8.09;100.00
60583;BME280;46415;47.536;19.066;2022-11-15T11:29:45;100536.59;;;8.23;100.00
60583;BME280;46415;47.536;19.066;2022-11-15T11:48:40;100522.56;;;8.04;100.00
60583;BME280;46415;47.536;19.066;2022-11-15T11:51:50;100516.44;;;8.06;100.00
60583;BME280;46415;47.536;19.066;2022-11-15T11:55:03;100512.59;;;7.92;100.00
60583;BME280;46415;47.536;19.066;2022-11-15T11:58:19;100503.53;;;7.78;100.00
60583;BME280;46415;47.536;19.066;2022-11-15T12:01:26;100499.97;;;7.81;100.00
60583;BME280;46415;47.536;19.066;2022-11-15T12:04:38;100484.63;;;7.76;100.00
60583;BME280;46415;47.536;19.066;2022-11-15T12:07:43;100481.97;;;7.79;100.00
60583;BME280;46415;47.536;19.066;2022-11-15T12:10:52;100482.66;;;7.85;100.00
60583;BME280;46415;47.536;19.066;2022-11-15T12:13:59;100483.63;;;7.80;100.00
60583;BME280;46415;47.536;19.066;2022-11-15T12:17:04;100475.28;;;7.72;100.00
60583;BME280;46415;47.536;19.066;2022-11-15T12:20:30;100468.63;;;7.65;100.00
60583;BME280;46415;47.536;19.066;2022-11-15T12:23:41;100457.25;;;7.71;100.00
60583;BME280;46415;47.536;19.066;2022-11-15T12:30:44;100455.19;;;7.82;100.00
60583;BME280;46415;47.536;19.066;2022-11-15T12:33:48;100459.12;;;7.94;100.00
60583;BME280;46415;47.536;19.066;2022-11-15T12:36:51;100455.41;;;8.02;100.00
60583;BME280;46415;47.536;19.066;2022-11-15T12:52:26;100441.44;;;8.08;100.00
60583;BME280;46415;47.536;19.066;2022-11-15T12:55:31;100433.19;;;7.97;100.00
60583;BME280;46415;47.536;19.066;2022-11-15T13:01:58;100431.69;;;7.90;100.00
60583;BME280;46415;47.536;19.066;2022-11-15T13:08:36;100417.41;;;7.78;100.00
60583;BME280;46415;47.536;19.066;2022-11-15T13:11:43;100413.25;;;7.74;100.00
60583;BME280;46415;47.536;19.066;2022-11-15T13:14:49;100415.72;;;7.77;100.00
60583;BME280;46415;47.536;19.066;2022-11-15T13:17:54;100414.47;;;7.62;100.00
60583;BME280;46415;47.536;19.066;2022-11-15T13:20:57;100415.75;;;7.49;100.00
60583;BME280;46415;47.536;19.066;2022-11-15T13:24:04;100423.72;;;7.42;100.00
60583;BME280;46415;47.536;19.066;2022-11-15T13:27:18;100417.38;;;7.52;100.00
60583;BME280;46415;47.536;19.066;2022-11-15T13:30:24;100417.94;;;7.61;100.00
60583;BME280;46415;47.536;19.066;2022-11-15T13:33:33;100411.28;;;7.80;100.00
60583;BME280;46415;47.536;19.066;2022-11-15T13:36:37;100411.97;;;7.59;100.00
60583;BME280;46415;47.536;19.066;2022-11-15T13:39:40;100413.94;;;7.51;100.00
60583;BME280;46415;47.536;19.066;2022-11-15T13:42:43;100412.19;;;7.52;100.00
60583;BME280;46415;47.536;19.066;2022-11-15T13:46:25;100407.19;;;7.47;100.00
60583;BME280;46415;47.536;19.066;2022-11-15T13:49:30;100403.97;;;7.39;100.00
60583;BME280;46415;47.536;19.066;2022-11-15T13:52:36;100389.03;;;7.50;100.00
60583;BME280;46415;47.536;19.066;2022-11-15T13:55:39;100395.88;;;7.51;100.00
60583;BME280;46415;47.536;19.066;2022-11-15T13:58:42;100385.97;;;7.37;100.00
60583;BME280;46415;47.536;19.066;2022-11-15T14:01:44;100367.66;;;7.45;100.00
60583;BME280;46415;47.536;19.066;2022-11-15T14:04:50;100363.53;;;7.39;100.00
60583;BME280;46415;47.536;19.066;2022-11-15T14:07:56;100366.28;;;7.33;100.00
60583;BME280;46415;47.536;19.066;2022-11-15T14:11:28;100369.06;;;7.27;100.00
60583;BME280;46415;47.536;19.066;2022-11-15T14:14:31;100367.62;;;7.19;100.00
60583;BME280;46415;47.536;19.066;2022-11-15T14:17:36;100366.22;;;7.09;100.00
60583;BME280;46415;47.536;19.066;2022-11-15T14:20:40;100359.28;;;7.09;100.00
60583;BME280;46415;47.536;19.066;2022-11-15T14:23:43;100360.78;;;7.16;100.00
60583;BME280;46415;47.536;19.066;2022-11-15T14:26:47;100358.41;;;7.10;100.00
60583;BME280;46415;47.536;19.066;2022-11-15T14:29:50;100360.38;;;7.02;100.00
60583;BME280;46415;47.536;19.066;2022-11-15T14:32:53;100354.53;;;6.95;100.00
60583;BME280;46415;47.536;19.066;2022-11-15T14:35:58;100351.59;;;7.08;100.00
60583;BME280;46415;47.536;19.066;2022-11-15T14:39:00;100342.31;;;7.02;100.00
60583;BME280;46415;47.536;19.066;2022-11-15T14:42:05;100339.06;;;6.95;100.00
60583;BME280;46415;47.536;19.066;2022-11-15T14:45:19;100343.06;;;7.06;100.00
60583;BME280;46415;47.536;19.066;2022-11-15T14:48:23;100332.84;;;7.03;100.00
60583;BME280;46415;47.536;19.066;2022-11-15T14:51:25;100333.03;;;6.96;100.00
60583;BME280;46415;47.536;19.066;2022-11-15T14:54:28;100332.06;;;6.99;100.00
60583;BME280;46415;47.536;19.066;2022-11-15T14:57:31;100317.25;;;7.06;100.00
60583;BME280;46415;47.536;19.066;2022-11-15T15:00:36;100306.56;;;7.18;100.00
60583;BME280;46415;47.536;19.066;2022-11-15T15:03:39;100308.59;;;7.08;100.00
60583;BME280;46415;47.536;19.066;2022-11-15T15:06:42;100319.03;;;7.04;100.00
60583;BME280;46415;47.536;19.066;2022-11-15T15:09:45;100319.09;;;7.02;100.00
60583;BME280;46415;47.536;19.066;2022-11-15T15:12:48;100320.19;;;6.93;100.00
60583;BME280;46415;47.536;19.066;2022-11-15T15:15:51;100313.34;;;6.92;100.00
60583;BME280;46415;47.536;19.066;2022-11-15T15:18:54;100311.34;;;7.02;100.00
60583;BME280;46415;47.536;19.066;2022-11-15T15:21:56;100306.19;;;7.02;100.00
60583;BME280;46415;47.536;19.066;2022-11-15T15:24:59;100305.16;;;7.08;100.00
60583;BME280;46415;47.536;19.066;2022-11-15T15:28:02;100309.56;;;7.04;100.00
60583;BME280;46415;47.536;19.066;2022-11-15T15:31:05;100305.37;;;7.00;100.00
60583;BME280;46415;47.536;19.066;2022-11-15T15:34:07;100296.72;;;7.03;100.00
60583;BME280;46415;47.536;19.066;2022-11-15T15:37:25;100295.31;;;7.20;100.00
60583;BME280;46415;47.536;19.066;2022-11-15T15:40:30;100306.00;;;7.08;100.00
60583;BME280;46415;47.536;19.066;2022-11-15T15:43:34;100303.47;;;7.07;100.00
60583;BME280;46415;47.536;19.066;2022-11-15T15:46:36;100306.19;;;7.02;100.00
60583;BME280;46415;47.536;19.066;2022-11-15T15:49:39;100307.22;;;6.96;100.00
60583;BME280;46415;47.536;19.066;2022-11-15T15:52:42;100301.22;;;6.96;100.00
60583;BME280;46415;47.536;19.066;2022-11-15T15:55:44;100301.03;;;7.02;100.00
60583;BME280;46415;47.536;19.066;2022-11-15T15:58:47;100292.59;;;6.97;100.00
60583;BME280;46415;47.536;19.066;2022-11-15T16:01:50;100295.78;;;7.04;100.00
60583;BME280;46415;47.536;19.066;2022-11-15T16:04:52;100297.50;;;7.05;100.00
60583;BME280;46415;47.536;19.066;2022-11-15T16:07:55;100303.84;;;6.94;100.00
60583;BME280;46415;47.536;19.066;2022-11-15T16:10:58;100290.81;;;6.97;100.00
60583;BME280;46415;47.536;19.066;2022-11-15T16:14:01;100288.34;;;6.94;100.00
60583;BME280;46415;47.536;19.066;2022-11-15T16:17:04;100298.66;;;6.94;100.00
60583;BME280;46415;47.536;19.066;2022-11-15T16:20:06;100286.25;;;7.07;100.00
60583;BME280;46415;47.536;19.066;2022-11-15T16:23:14;100286.47;;;7.00;100.00
60583;BME280;46415;47.536;19.066;2022-11-15T16:26:23;100288.13;;;7.02;100.00
60583;BME280;46415;47.536;19.066;2022-11-15T16:29:27;100287.22;;;7.03;100.00
60583;BME280;46415;47.536;19.066;2022-11-15T16:32:30;100287.19;;;7.05;100.00
60583;BME280;46415;47.536;19.066;2022-11-15T16:35:33;100298.50;;;7.01;100.00
60583;BME280;46415;47.536;19.066;2022-11-15T16:38:35;100289.16;;;6.96;100.00
60583;BME280;46415;47.536;19.066;2022-11-15T16:41:39;100287.97;;;7.07;100.00
60583;BME280;46415;47.536;19.066;2022-11-15T16:44:42;100277.75;;;7.04;100.00
60583;BME280;46415;47.536;19.066;2022-11-15T16:47:46;100283.66;;;7.07;100.00
60583;BME280;46415;47.536;19.066;2022-11-15T16:50:54;100272.69;;;7.01;100.00
60583;BME280;46415;47.536;19.066;2022-11-15T16:53:58;100265.03;;;6.97;100.00
60583;BME280;46415;47.536;19.066;2022-11-15T16:57:00;100271.13;;;6.95;100.00
60583;BME280;46415;47.536;19.066;2022-11-15T17:00:03;100262.38;;;7.01;100.00
60583;BME280;46415;47.536;19.066;2022-11-15T17:03:06;100262.44;;;6.97;100.00
60583;BME280;46415;47.536;19.066;2022-11-15T17:06:10;100258.09;;;7.00;100.00
60583;BME280;46415;47.536;19.066;2022-11-15T17:09:21;100259.75;;;7.02;100.00
60583;BME280;46415;47.536;19.066;2022-11-15T17:12:27;100258.53;;;7.14;100.00
60583;BME280;46415;47.536;19.066;2022-11-15T17:15:32;100257.75;;;7.10;100.00
60583;BME280;46415;47.536;19.066;2022-11-15T17:18:35;100258.56;;;7.12;100.00
60583;BME280;46415;47.536;19.066;2022-11-15T17:21:38;100257.72;;;7.12;100.00
60583;BME280;46415;47.536;19.066;2022-11-15T17:24:41;100250.81;;;7.12;100.00
60583;BME280;46415;47.536;19.066;2022-11-15T17:27:46;100244.84;;;7.10;100.00
60583;BME280;46415;47.536;19.066;2022-11-15T17:30:52;100245.84;;;7.06;100.00
60583;BME280;46415;47.536;19.066;2022-11-15T17:33:55;100240.91;;;6.98;100.00
60583;BME280;46415;47.536;19.066;2022-11-15T17:36:58;100244.31;;;7.01;100.00
60583;BME280;46415;47.536;19.066;2022-11-15T17:40:00;100240.03;;;7.00;100.00
60583;BME280;46415;47.536;19.066;2022-11-15T17:43:05;100233.44;;;6.91;100.00
60583;BME280;46415;47.536;19.066;2022-11-15T17:46:11;100236.22;;;6.85;100.00
60583;BME280;46415;47.536;19.066;2022-11-15T17:49:14;100225.22;;;6.78;100.00
60583;BME280;46415;47.536;19.066;2022-11-15T17:52:16;100222.88;;;6.71;100.00
60583;BME280;46415;47.536;19.066;2022-11-15T17:55:19;100213.44;;;6.70;100.00
60583;BME280;46415;47.536;19.066;2022-11-15T17:58:22;100209.31;;;6.64;100.00
60583;BME280;46415;47.536;19.066;2022-11-15T18:01:28;100203.97;;;6.70;100.00
60583;BME280;46415;47.536;19.066;2022-11-15T18:04:31;100200.38;;;6.76;100.00
60583;BME280;46415;47.536;19.066;2022-11-15T18:07:34;100200.38;;;6.76;100.00
60583;BME280;46415;47.536;19.066;2022-11-15T18:10:37;100194.34;;;6.75;100.00
60583;BME280;46415;47.536;19.066;2022-11-15T18:13:41;100188.28;;;6.78;100.00
60583;BME280;46415;47.536;19.066;2022-11-15T18:16:45;100196.06;;;6.76;100.00
60583;BME280;46415;47.536;19.066;2022-11-15T18:19:48;100196.06;;;6.76;100.00
60583;BME280;46415;47.536;19.066;2022-11-15T18:22:52;100193.59;;;6.73;100.00
60583;BME280;46415;47.536;19.066;2022-11-15T18:25:55;100189.31;;;6.72;100.00
60583;BME280;46415;47.536;19.066;2022-11-15T18:29:02;100187.50;;;6.74;100.00